Time;durP1;ratioP1;P1;durP2;ratioP2;P2;SDS_P1;SDS_P2;PMS_P1;PMS_P2;Temp;Humidity;BMP_temperature;BMP_pressure;BME280_temperature;BME280_humidity;BME280_pressure;Samples;Min_cycle;Max_cycle;Signal;HPM_P1;HPM_P2
2021/09/01 04:55:31;;;;;;;23.92;8.25;;;;;;;14.67;84.72;99673.95;1733005;80;21661;-32
2021/09/01 04:58:00;;;;;;;18.25;7.90;;;;;;;14.77;84.85;99669.72;1704292;81;21107;-38
2021/09/01 05:00:27;;;;;;;16.00;8.53;;;;;;;14.86;84.82;99665.98;1731171;81;21078;-36
2021/09/01 05:02:54;;;;;;;22.37;9.18;;;;;;;14.98;84.98;99657.74;1699439;82;21609;-39
2021/09/01 05:05:21;;;;;;;11.63;7.75;;;;;;;15.11;85.05;99652.53;1706338;81;21576;-33
2021/09/01 05:07:48;;;;;;;17.57;10.13;;;;;;;15.24;85.05;99654.34;1708622;81;21599;-39
2021/09/01 05:10:16;;;;;;;13.05;8.63;;;;;;;15.39;85.27;99662.28;1712072;81;21641;-32
2021/09/01 05:12:49;;;;;;;25.65;10.20;;;;;;;15.54;85.26;99662.25;1682066;83;22030;-33
2021/09/01 05:15:23;;;;;;;13.93;8.15;;;;;;;15.73;85.12;99659.97;1719643;82;21039;-32
2021/09/01 05:17:47;;;;;;;13.83;9.20;;;;;;;15.93;84.51;99657.55;1679745;82;21082;-38
2021/09/01 05:20:16;;;;;;;13.53;8.83;;;;;;;16.12;84.19;99654.75;1692333;82;21047;-39
2021/09/01 05:22:46;;;;;;;10.72;7.03;;;;;;;16.32;83.18;99653.22;1693136;81;21700;-39
2021/09/01 05:25:15;;;;;;;14.43;8.43;;;;;;;16.52;81.74;99657.81;1685442;82;21593;-39
2021/09/01 05:27:44;;;;;;;14.63;7.83;;;;;;;16.68;80.56;99657.69;1726926;80;21107;-38
2021/09/01 05:30:15;;;;;;;15.13;9.30;;;;;;;16.83;79.63;99655.02;1700696;81;21021;-39
2021/09/01 05:32:43;;;;;;;11.38;7.50;;;;;;;16.97;79.17;99652.26;1674686;85;21626;-39
2021/09/01 05:35:11;;;;;;;11.35;7.95;;;;;;;17.15;78.06;99646.75;1719621;82;21603;-39
2021/09/01 05:37:40;;;;;;;11.30;7.15;;;;;;;17.32;77.27;99642.16;1699703;82;21796;-38
2021/09/01 05:40:08;;;;;;;14.25;8.03;;;;;;;17.49;77.24;99641.52;1709886;82;21080;-38
2021/09/01 05:42:35;;;;;;;12.28;8.23;;;;;;;17.60;77.69;99635.82;1717173;82;21500;-33
2021/09/01 05:45:03;;;;;;;12.18;7.10;;;;;;;17.71;77.95;99636.27;1712625;81;22021;-33
2021/09/01 05:47:30;;;;;;;13.60;6.87;;;;;;;17.85;76.89;99627.80;1777367;79;21024;-34
2021/09/01 05:49:57;;;;;;;12.95;7.70;;;;;;;17.99;76.12;99624.14;1783566;79;20969;-37
2021/09/01 05:52:24;;;;;;;10.78;7.25;;;;;;;18.15;75.67;99622.59;1734402;80;21592;-33
2021/09/01 05:54:52;;;;;;;8.35;6.53;;;;;;;18.28;74.82;99620.29;1722556;83;21027;-38
2021/09/01 05:57:21;;;;;;;8.95;5.47;;;;;;;18.35;74.72;99621.28;1767226;79;20977;-32
2021/09/01 05:59:57;;;;;;;13.88;8.18;;;;;;;18.45;72.78;99622.23;1756725;79;21579;-32
2021/09/01 06:02:52;;;;;;;9.93;6.12;;;;;;;18.52;73.43;99618.38;1753727;79;21027;-32
2021/09/01 06:05:20;;;;;;;19.20;5.92;;;;;;;18.60;73.59;99625.05;1720311;81;20988;-33
2021/09/01 06:07:56;;;;;;;17.77;6.42;;;;;;;18.71;70.44;99622.44;1736656;80;20986;-32
2021/09/01 06:10:29;;;;;;;11.25;6.22;;;;;;;18.77;70.60;99623.02;1721604;80;21592;-38
2021/09/01 06:12:59;;;;;;;14.40;6.05;;;;;;;18.82;70.20;99625.48;1751676;79;21663;-38
2021/09/01 06:15:27;;;;;;;11.80;6.67;;;;;;;18.92;69.29;99627.27;1778072;79;21337;-32
2021/09/01 06:17:56;;;;;;;19.77;7.17;;;;;;;19.03;68.45;99624.52;1744481;79;21112;-34
2021/09/01 06:20:24;;;;;;;22.25;7.62;;;;;;;19.16;68.50;99629.27;1749062;80;21103;-45
2021/09/01 06:22:52;;;;;;;15.93;8.80;;;;;;;19.26;69.15;99626.59;1729836;80;21079;-38
2021/09/01 06:25:20;;;;;;;19.40;7.28;;;;;;;19.39;69.35;99621.97;1769861;78;20976;-38
2021/09/01 06:27:48;;;;;;;21.55;6.97;;;;;;;19.55;68.44;99619.93;1721447;81;21040;-38
2021/09/01 06:30:16;;;;;;;13.35;6.37;;;;;;;19.71;67.33;99628.03;1715927;81;21009;-38
2021/09/01 06:32:45;;;;;;;12.88;7.03;;;;;;;19.85;65.91;99631.75;1761652;78;21098;-32
2021/09/01 06:35:12;;;;;;;15.63;6.15;;;;;;;19.97;65.02;99635.60;1773790;79;21084;-39
2021/09/01 06:37:39;;;;;;;12.68;6.90;;;;;;;20.10;64.61;99631.88;1763668;79;21147;-38
2021/09/01 06:40:07;;;;;;;10.78;6.70;;;;;;;20.23;65.00;99638.75;1769192;79;21047;-33
2021/09/01 06:42:35;;;;;;;22.30;8.13;;;;;;;20.34;64.59;99635.09;1761876;80;21632;-38
2021/09/01 06:45:02;;;;;;;17.37;7.20;;;;;;;20.42;64.09;99631.59;1725111;82;21560;-38
2021/09/01 06:47:47;;;;;;;13.65;8.63;;;;;;;20.48;64.08;99629.13;1702116;83;21023;-38
2021/09/01 06:50:15;;;;;;;14.07;6.70;;;;;;;20.56;63.88;99629.11;1730843;81;21378;-38
2021/09/01 06:52:43;;;;;;;15.85;6.70;;;;;;;20.66;64.31;99627.70;1714975;82;21102;-39
2021/09/01 06:55:10;;;;;;;12.98;5.97;;;;;;;20.76;63.21;99628.53;1716088;82;21654;-33
2021/09/01 06:57:37;;;;;;;11.70;5.47;;;;;;;20.88;61.68;99622.60;1730579;80;21091;-34
2021/09/01 07:00:05;;;;;;;12.03;5.72;;;;;;;21.00;61.03;99628.59;1733775;80;21027;-39
2021/09/01 07:02:34;;;;;;;12.00;5.42;;;;;;;21.09;59.09;99633.88;1716930;81;21062;-38
2021/09/01 07:05:02;;;;;;;9.23;4.87;;;;;;;21.15;59.06;99633.55;1725195;81;21519;-32
2021/09/01 07:07:30;;;;;;;7.85;4.45;;;;;;;21.24;59.18;99637.05;1685294;82;21623;-38
2021/09/01 07:09:56;;;;;;;7.15;4.03;;;;;;;21.36;58.62;99640.88;1706658;82;21549;-38
2021/09/01 07:12:25;;;;;;;10.38;4.00;;;;;;;21.47;59.13;99635.83;1719190;81;21374;-38
2021/09/01 07:14:53;;;;;;;5.22;3.33;;;;;;;21.58;58.17;99636.09;1719657;81;21747;-39
2021/09/01 07:17:22;;;;;;;8.90;5.00;;;;;;;21.70;56.73;99638.06;1724372;81;21638;-32
2021/09/01 07:19:52;;;;;;;6.62;3.70;;;;;;;21.73;55.69;99641.02;1696952;81;21793;-32
2021/09/01 07:22:19;;;;;;;18.48;4.42;;;;;;;21.76;55.04;99639.05;1696045;81;21587;-38
2021/09/01 07:24:47;;;;;;;4.67;3.92;;;;;;;21.85;55.22;99637.66;1728892;81;21887;-38
2021/09/01 07:27:25;;;;;;;4.67;2.92;;;;;;;21.96;55.89;99628.58;1755634;80;21009;-32
2021/09/01 07:30:05;;;;;;;5.15;3.67;;;;;;;22.09;53.92;99622.55;1754693;79;21028;-38
2021/09/01 07:32:38;;;;;;;6.22;3.90;;;;;;;22.18;54.47;99625.58;1754198;79;21642;-32
2021/09/01 07:35:05;;;;;;;;;;;;;;;22.29;54.46;99619.15;1757793;79;21306;-33
2021/09/01 07:37:32;;;;;;;8.30;3.30;;;;;;;22.42;53.51;99618.42;1752452;79;20104;-38
2021/09/01 07:39:59;;;;;;;3.60;3.30;;;;;;;22.50;53.39;99623.70;1751673;80;21576;-32
2021/09/01 07:42:26;;;;;;;4.55;2.80;;;;;;;22.57;53.09;99618.84;1757957;79;21607;-39
2021/09/01 07:44:53;;;;;;;4.87;3.05;;;;;;;22.62;50.10;99621.25;1755299;80;20961;-33
2021/09/01 07:47:19;;;;;;;2.98;2.60;;;;;;;22.65;49.36;99619.23;1759266;79;21147;-39
2021/09/01 08:23:26;;;;;;;3.17;2.10;;;;;;;23.63;42.54;99583.32;1758357;77;21139;-38
2021/09/01 08:25:53;;;;;;;2.98;2.05;;;;;;;23.66;44.34;99575.61;1757119;79;21029;-38
2021/09/01 08:28:28;;;;;;;14.83;2.02;;;;;;;23.77;44.13;99574.43;1756666;79;21096;-37
2021/09/01 08:30:57;;;;;;;10.63;2.50;;;;;;;23.87;41.89;99567.98;1772631;79;21020;-38
2021/09/01 08:33:26;;;;;;;5.15;2.52;;;;;;;23.86;41.87;99571.61;1733675;79;21028;-38
2021/09/01 08:35:55;;;;;;;4.62;2.62;;;;;;;23.86;40.70;99571.61;1706717;81;21066;-39
2021/09/01 08:38:22;;;;;;;2.75;1.65;;;;;;;23.90;42.26;99562.45;1722684;80;21103;-32
2021/09/01 08:40:49;;;;;;;1.72;1.62;;;;;;;23.98;40.40;99575.28;1735429;81;21024;-38
2021/09/01 08:43:19;;;;;;;2.55;1.77;;;;;;;23.99;38.20;99563.16;1716340;82;21048;-38
2021/09/01 08:45:47;;;;;;;6.00;2.33;;;;;;;24.01;40.42;99561.74;1756058;79;20993;-33
2021/09/01 08:48:17;;;;;;;4.72;2.27;;;;;;;24.10;40.95;99569.97;1770439;79;20961;-38
2021/09/01 08:50:47;;;;;;;3.10;2.02;;;;;;;24.17;40.49;99555.72;1742766;80;21990;-38
2021/09/01 08:53:15;;;;;;;6.17;2.25;;;;;;;24.26;42.51;99555.59;1773721;80;21480;-38
2021/09/01 08:55:43;;;;;;;2.25;2.05;;;;;;;24.37;39.18;99555.74;1775787;79;21008;-39
2021/09/01 08:58:10;;;;;;;1.92;1.82;;;;;;;24.45;40.50;99548.52;1758864;78;21003;-33
2021/09/01 09:00:59;;;;;;;2.22;2.00;;;;;;;24.53;40.09;99545.71;1770088;78;21008;-33
2021/09/01 09:03:29;;;;;;;4.45;2.22;;;;;;;24.54;40.28;99536.72;1750097;79;21943;-34
2021/09/01 09:06:04;;;;;;;3.22;2.50;;;;;;;24.56;41.06;99541.95;1748670;79;21987;-33
2021/09/01 09:08:32;;;;;;;4.12;2.20;;;;;;;24.53;40.32;99540.84;1753070;80;21505;-39
2021/09/01 09:10:59;;;;;;;4.12;2.27;;;;;;;24.45;40.52;99538.68;1769411;78;21453;-33
2021/09/01 09:13:30;;;;;;;6.22;2.17;;;;;;;24.47;39.91;99531.43;1753354;79;21112;-39
2021/09/01 09:16:08;;;;;;;4.20;1.90;;;;;;;24.49;40.23;99530.84;1772414;78;21035;-34
2021/09/01 09:18:36;;;;;;;2.92;1.90;;;;;;;24.52;39.64;99528.41;1756419;80;21103;-40
2021/09/01 09:21:22;;;;;;;3.35;2.00;;;;;;;24.52;38.83;99518.57;1752035;79;21052;-39
2021/09/01 09:23:50;;;;;;;3.47;1.95;;;;;;;24.52;38.83;99518.57;1761595;78;20999;-32
2021/09/01 09:26:31;;;;;;;5.00;2.05;;;;;;;24.58;38.62;99521.30;1764781;80;21012;-33
2021/09/01 09:29:17;;;;;;;2.30;1.90;;;;;;;24.64;37.89;99527.10;1775399;79;21573;-40
2021/09/01 09:32:03;;;;;;;7.35;2.10;;;;;;;24.80;38.85;99530.02;1763967;79;21498;-33
2021/09/01 09:34:38;;;;;;;5.10;1.87;;;;;;;24.80;38.85;99530.02;1753573;80;21535;-34
2021/09/01 09:37:06;;;;;;;6.05;1.98;;;;;;;24.83;37.52;99514.61;1766388;80;21065;-31
2021/09/01 09:39:43;;;;;;;2.02;1.82;;;;;;;24.89;37.14;99514.66;1774524;79;20982;-32
2021/09/01 09:42:11;;;;;;;1.70;1.60;;;;;;;24.84;36.92;99510.12;1762974;79;21709;-34
2021/09/01 09:44:38;;;;;;;2.98;1.85;;;;;;;24.84;36.92;99510.12;1748297;81;21517;-39
2021/09/01 09:47:05;;;;;;;1.65;1.55;;;;;;;24.78;37.65;99511.41;1709298;83;21072;-35
2021/09/01 09:49:33;;;;;;;1.75;1.62;;;;;;;24.76;37.41;99499.09;1694829;83;21048;-39
2021/09/01 09:52:00;;;;;;;2.35;1.80;;;;;;;24.76;37.41;99499.09;1708809;83;21037;-34
2021/09/01 09:54:28;;;;;;;2.60;1.60;;;;;;;24.83;38.02;99497.71;1702487;83;21064;-39
2021/09/01 09:57:10;;;;;;;8.58;2.10;;;;;;;24.83;38.02;99497.71;1698617;83;21148;-40
2021/09/01 09:59:37;;;;;;;2.20;1.90;;;;;;;24.91;37.64;99496.19;1730317;81;21971;-41
2021/09/01 10:02:05;;;;;;;6.10;2.08;;;;;;;24.88;37.49;99495.08;1725238;81;21014;-41
2021/09/01 10:04:32;;;;;;;2.95;1.98;;;;;;;24.87;37.77;99493.83;1725225;83;21004;-39
2021/09/01 10:07:01;;;;;;;2.15;1.85;;;;;;;24.93;37.29;99492.05;1717263;82;21097;-40
2021/09/01 10:09:28;;;;;;;2.17;1.70;;;;;;;25.04;38.33;99487.27;1725594;81;21123;-34
2021/09/01 10:11:54;;;;;;;2.08;1.67;;;;;;;25.17;38.00;99492.16;1729504;81;21604;-40
2021/09/01 10:14:23;;;;;;;2.65;1.77;;;;;;;25.27;37.66;99493.66;1777165;79;21506;-40
2021/09/01 10:17:02;;;;;;;2.30;2.10;;;;;;;25.37;38.21;99486.17;1771457;80;21036;-35
2021/09/01 10:19:30;;;;;;;2.12;1.77;;;;;;;25.58;38.29;99481.55;1748720;80;21623;-34
2021/09/01 10:22:03;;;;;;;1.62;1.52;;;;;;;25.76;35.68;99480.68;1742367;80;21101;-40
2021/09/01 10:24:35;;;;;;;5.47;1.80;;;;;;;25.88;35.01;99485.95;1775508;79;20969;-35
2021/09/01 10:27:12;;;;;;;2.15;1.95;;;;;;;26.05;35.23;99481.99;1750916;79;21037;-41
2021/09/01 10:29:55;;;;;;;2.90;2.20;;;;;;;26.09;35.66;99478.57;1747740;78;20996;-34
2021/09/01 10:32:54;;;;;;;11.93;2.15;;;;;;;26.01;37.49;99475.15;1758854;79;21001;-40
2021/09/01 10:35:26;;;;;;;5.42;1.92;;;;;;;25.95;36.63;99476.47;1779720;80;21409;-34
2021/09/01 10:37:55;;;;;;;8.58;2.12;;;;;;;25.89;38.67;99474.27;1739353;79;21107;-34
2021/09/01 10:40:31;;;;;;;1.95;1.57;;;;;;;25.86;38.50;99467.81;1751250;79;20974;-34
2021/09/01 10:43:00;;;;;;;1.92;1.67;;;;;;;25.78;37.34;99470.69;1731085;80;21004;-34
2021/09/01 10:45:37;;;;;;;2.95;2.27;;;;;;;25.72;35.91;99470.16;1711524;81;21009;-34
2021/09/01 10:48:07;;;;;;;6.30;4.17;;;;;;;25.81;37.13;99468.65;1732786;82;21109;-34
2021/09/01 10:50:38;;;;;;;8.38;5.62;;;;;;;26.00;35.66;99469.42;1727482;80;21520;-41
2021/09/01 10:53:24;;;;;;;4.28;2.70;;;;;;;25.92;35.37;99474.05;1724677;82;21097;-41
2021/09/01 10:56:06;;;;;;;3.40;2.60;;;;;;;25.77;35.69;99474.34;1764942;80;21565;-40
2021/09/01 10:58:39;;;;;;;8.58;2.98;;;;;;;25.56;36.22;99472.75;1764817;79;21049;-41
2021/09/01 11:01:10;;;;;;;6.12;2.30;;;;;;;25.41;36.54;99476.96;1753173;80;21016;-40
2021/09/01 11:04:03;;;;;;;14.78;2.85;;;;;;;25.29;37.93;99475.20;1768996;80;21094;-34
2021/09/01 11:06:35;;;;;;;4.30;1.72;;;;;;;25.26;38.80;99467.37;1755390;80;21654;-34
2021/09/01 11:09:14;;;;;;;3.77;1.92;;;;;;;25.20;37.66;99471.84;1760565;79;21568;-42
2021/09/01 11:11:47;;;;;;;6.70;3.90;;;;;;;25.05;37.72;99473.84;1760597;80;21610;-34
2021/09/01 11:14:40;;;;;;;8.05;4.03;;;;;;;24.86;38.52;99475.59;1762832;79;21594;-34
2021/09/01 11:17:10;;;;;;;7.30;2.60;;;;;;;24.62;39.11;99476.86;1754529;79;21032;-40
2021/09/01 11:19:40;;;;;;;4.33;2.05;;;;;;;24.34;39.83;99480.62;1733132;80;21007;-33
2021/09/01 11:22:14;;;;;;;3.45;2.12;;;;;;;24.11;39.39;99475.49;1730607;81;21000;-34
2021/09/01 11:24:50;;;;;;;5.95;3.45;;;;;;;24.00;39.96;99482.53;1714360;83;21013;-35
2021/09/01 11:27:23;;;;;;;10.20;4.20;;;;;;;23.90;40.67;99482.33;1737039;82;21054;-34
2021/09/01 11:30:00;;;;;;;9.03;4.35;;;;;;;23.78;41.72;99481.34;1725406;81;20980;-41
2021/09/01 11:32:27;;;;;;;3.60;2.67;;;;;;;23.72;42.69;99484.42;1691109;82;21025;-33
2021/09/01 11:34:54;;;;;;;3.80;2.17;;;;;;;23.60;42.59;99490.55;1714207;82;21588;-33
2021/09/01 11:37:20;;;;;;;5.83;2.30;;;;;;;23.60;42.59;99490.55;1756945;79;21130;-34
2021/09/01 11:39:50;;;;;;;9.43;3.22;;;;;;;23.53;44.44;99484.73;1757778;81;21485;-33
2021/09/01 11:42:16;;;;;;;4.30;2.98;;;;;;;23.46;44.75;99489.25;1767539;79;21096;-34
2021/09/01 11:44:43;;;;;;;6.67;3.80;;;;;;;23.36;45.45;99479.64;1755210;79;21000;-40
2021/09/01 11:47:15;;;;;;;6.92;3.22;;;;;;;23.31;46.25;99473.30;1742486;79;21029;-40
2021/09/01 11:49:43;;;;;;;3.77;2.83;;;;;;;23.27;46.28;99466.44;1760478;81;21036;-33
2021/09/01 11:52:09;;;;;;;7.75;2.75;;;;;;;23.25;45.57;99461.70;1757551;79;21429;-33
2021/09/01 11:54:41;;;;;;;7.17;2.95;;;;;;;23.26;46.43;99459.40;1749172;79;21002;-40
2021/09/01 11:57:08;;;;;;;23.98;4.58;;;;;;;23.36;47.27;99459.63;1758342;79;21022;-40
2021/09/01 11:59:35;;;;;;;10.65;3.35;;;;;;;23.56;46.49;99456.52;1757515;79;21659;-34
2021/09/01 12:02:02;;;;;;;14.25;4.03;;;;;;;23.80;45.96;99443.84;1741542;79;21079;-34
2021/09/01 12:04:30;;;;;;;16.07;3.30;;;;;;;24.01;46.01;99435.70;1752325;79;21485;-39
2021/09/01 12:06:58;;;;;;;10.90;3.08;;;;;;;24.29;45.27;99428.41;1767341;81;21071;-34
2021/09/01 12:09:27;;;;;;;15.00;4.03;;;;;;;24.61;45.25;99426.18;1758846;79;21044;-34
2021/09/01 12:11:59;;;;;;;9.80;4.20;;;;;;;24.91;44.13;99419.94;1753040;79;21064;-33
2021/09/01 12:14:31;;;;;;;18.42;4.05;;;;;;;25.18;43.64;99417.59;1758371;81;21527;-35
2021/09/01 12:17:23;;;;;;;6.72;3.12;;;;;;;25.37;43.63;99408.55;1748291;79;21084;-34
2021/09/01 12:19:57;;;;;;;7.08;2.62;;;;;;;25.54;42.43;99403.25;1754610;79;21088;-34
2021/09/01 12:22:41;;;;;;;6.17;2.83;;;;;;;25.66;41.07;99396.11;1752580;81;21077;-39
2021/09/01 12:25:09;;;;;;;3.10;2.10;;;;;;;25.72;40.11;99394.30;1759145;79;21092;-40
2021/09/01 12:27:39;;;;;;;2.22;1.92;;;;;;;25.74;37.69;99388.36;1715729;81;21036;-40
2021/09/01 12:30:10;;;;;;;6.22;1.42;;;;;;;25.71;36.56;99377.87;1756828;81;21012;-40
2021/09/01 12:32:37;;;;;;;2.52;1.30;;;;;;;25.70;36.77;99377.50;1757443;80;21123;-35
2021/09/01 12:35:07;;;;;;;2.45;1.20;;;;;;;25.74;35.71;99380.33;1757471;81;21386;-40
2021/09/01 12:50:04;;;;;;;9.88;1.32;;;;;;;26.31;34.79;99357.98;1794851;79;26494;-39
2021/09/01 12:52:31;;;;;;;4.22;1.45;;;;;;;26.26;34.78;99355.66;1732960;80;20968;-41
2021/09/01 12:54:58;;;;;;;2.50;1.70;;;;;;;26.20;33.83;99346.77;1730533;82;21061;-34
2021/09/01 12:57:25;;;;;;;5.17;1.82;;;;;;;26.11;34.00;99351.53;1724099;82;20985;-34
2021/09/01 12:59:52;;;;;;;4.45;1.62;;;;;;;26.13;34.70;99342.02;1716324;82;21030;-40
2021/09/01 13:02:18;;;;;;;6.60;1.90;;;;;;;26.31;34.32;99342.38;1676116;85;20993;-33
2021/09/01 13:04:45;;;;;;;3.50;1.25;;;;;;;26.55;34.42;99334.22;1702881;84;21050;-40
2021/09/01 13:07:12;;;;;;;6.40;1.47;;;;;;;26.68;33.55;99329.09;1682932;84;21014;-40
2021/09/01 13:09:38;;;;;;;5.12;1.75;;;;;;;26.72;34.25;99334.55;1687827;84;21045;-40
2021/09/01 13:12:06;;;;;;;3.40;1.75;;;;;;;26.78;33.98;99332.70;1691487;84;21064;-40
2021/09/01 13:14:34;;;;;;;4.92;2.17;;;;;;;26.81;34.19;99334.30;1684767;84;21061;-41
2021/09/01 13:17:01;;;;;;;4.30;2.00;;;;;;;26.93;33.67;99335.96;1697157;84;20985;-40
2021/09/01 13:19:27;;;;;;;3.25;2.17;;;;;;;27.19;33.57;99324.41;1682833;84;21080;-40
2021/09/01 13:21:54;;;;;;;6.40;2.42;;;;;;;27.35;33.54;99332.03;1681439;84;21008;-34
2021/09/01 13:24:21;;;;;;;5.30;2.50;;;;;;;27.27;33.91;99334.52;1698547;82;21048;-34
2021/09/01 13:26:48;;;;;;;5.20;2.35;;;;;;;27.11;34.74;99347.52;1681604;84;21495;-34
2021/09/01 13:29:14;;;;;;;6.62;2.90;;;;;;;27.00;36.20;99345.20;1665277;85;21607;-34
2021/09/01 13:31:41;;;;;;;14.95;3.22;;;;;;;26.63;37.65;99347.88;1709319;82;21002;-34
2021/09/01 13:34:08;;;;;;;13.43;3.08;;;;;;;26.19;38.41;99345.55;1644803;85;21142;-35
2021/09/01 13:36:36;;;;;;;12.82;3.47;;;;;;;25.76;39.59;99343.58;1693293;84;21628;-34
2021/09/01 13:39:03;;;;;;;10.00;3.27;;;;;;;25.35;40.58;99343.57;1682176;84;21597;-36
2021/09/01 13:41:30;;;;;;;9.25;2.85;;;;;;;24.97;41.50;99339.72;1703402;84;21580;-34
2021/09/01 13:43:58;;;;;;;10.82;3.80;;;;;;;24.58;42.92;99332.31;1703373;84;21102;-35
2021/09/01 13:46:27;;;;;;;6.40;2.92;;;;;;;24.37;44.04;99334.75;1701263;84;21025;-34
2021/09/01 13:48:56;;;;;;;12.33;3.10;;;;;;;24.31;44.57;99338.31;1693174;84;21086;-41
2021/09/01 13:51:22;;;;;;;16.02;3.90;;;;;;;24.20;44.48;99341.75;1691201;84;21567;-41
2021/09/01 13:53:49;;;;;;;8.58;3.08;;;;;;;24.07;44.67;99333.75;1676422;84;21620;-34
2021/09/01 13:56:16;;;;;;;10.28;3.50;;;;;;;23.98;45.18;99335.73;1696633;83;21357;-41
2021/09/01 13:58:44;;;;;;;10.28;2.95;;;;;;;23.89;44.81;99331.05;1620102;87;21126;-41
2021/09/01 14:01:11;;;;;;;8.45;2.65;;;;;;;23.84;43.81;99330.03;1637563;87;21584;-41
2021/09/01 14:03:37;;;;;;;5.17;2.52;;;;;;;23.84;43.81;99330.03;1639904;86;21072;-42
2021/09/01 14:06:04;;;;;;;4.37;2.12;;;;;;;23.76;43.33;99325.69;1652905;86;20985;-41
2021/09/01 14:08:31;;;;;;;5.17;1.90;;;;;;;23.65;42.42;99323.39;1642850;86;21108;-41
2021/09/01 14:10:57;;;;;;;8.35;2.37;;;;;;;23.52;42.62;99329.54;1657580;86;21029;-34
2021/09/01 14:13:24;;;;;;;11.97;2.87;;;;;;;23.43;42.61;99317.33;1647777;86;21487;-34
2021/09/01 14:15:53;;;;;;;11.18;2.25;;;;;;;23.35;43.23;99322.68;1650773;86;21620;-34
2021/09/01 14:18:21;;;;;;;18.60;3.92;;;;;;;23.24;42.40;99315.03;1653685;86;21088;-41
2021/09/01 14:20:47;;;;;;;15.60;2.75;;;;;;;23.15;43.22;99318.34;1640104;86;21021;-34
2021/09/01 14:23:14;;;;;;;23.42;3.27;;;;;;;23.06;43.29;99316.64;1638671;86;21056;-42
2021/09/01 14:25:41;;;;;;;30.90;2.83;;;;;;;22.99;43.31;99322.50;1650795;86;21085;-41
2021/09/01 14:28:07;;;;;;;5.83;1.87;;;;;;;22.92;43.88;99325.20;1651449;86;21104;-34
2021/09/01 14:30:37;;;;;;;6.92;1.95;;;;;;;22.81;44.45;99321.87;1638087;87;21024;-34
2021/09/01 14:33:04;;;;;;;7.87;2.25;;;;;;;22.69;44.94;99330.19;1650811;86;21108;-41
2021/09/01 14:35:33;;;;;;;7.20;2.30;;;;;;;22.55;44.97;99328.43;1637642;86;21028;-41
2021/09/01 14:38:00;;;;;;;4.40;2.77;;;;;;;22.45;44.62;99330.45;1640081;86;21048;-42
2021/09/01 14:40:28;;;;;;;7.22;2.50;;;;;;;22.37;46.05;99324.73;1653463;86;20981;-40
2021/09/01 14:42:57;;;;;;;3.55;3.10;;;;;;;22.26;47.31;99320.94;1647617;86;21310;-41
2021/09/01 14:45:23;;;;;;;5.58;2.62;;;;;;;22.20;48.25;99319.99;1645605;86;21515;-41
2021/09/01 14:47:50;;;;;;;3.27;2.55;;;;;;;22.14;48.56;99328.37;1653071;86;21044;-41
2021/09/01 14:50:16;;;;;;;4.42;2.80;;;;;;;22.10;49.11;99324.21;1678442;84;21061;-41
2021/09/01 14:52:43;;;;;;;4.58;2.52;;;;;;;22.06;49.61;99322.65;1681544;84;21585;-36
2021/09/01 14:55:11;;;;;;;4.08;2.70;;;;;;;22.03;49.96;99324.16;1687262;84;21062;-35
2021/09/01 14:57:38;;;;;;;5.12;2.87;;;;;;;21.99;50.78;99326.66;1687054;84;21012;-34
2021/09/01 15:00:07;;;;;;;7.65;3.17;;;;;;;21.92;51.48;99324.84;1705731;84;21572;-34
2021/09/01 15:02:34;;;;;;;5.33;2.77;;;;;;;21.86;52.28;99327.01;1705583;83;21065;-34
2021/09/01 15:05:01;;;;;;;6.22;3.60;;;;;;;21.74;52.65;99325.52;1690458;84;21038;-35
2021/09/01 15:07:28;;;;;;;5.20;2.83;;;;;;;21.62;53.40;99330.22;1686949;84;21546;-34
2021/09/01 15:09:54;;;;;;;7.83;3.55;;;;;;;21.47;53.89;99322.70;1683252;84;21085;-35
2021/09/01 15:12:22;;;;;;;7.97;3.80;;;;;;;21.35;54.50;99318.13;1705194;84;21014;-34
2021/09/01 15:14:50;;;;;;;15.68;4.80;;;;;;;21.25;55.05;99323.56;1705845;84;21588;-40
2021/09/01 15:17:16;;;;;;;6.70;3.37;;;;;;;21.17;55.98;99324.03;1705746;83;21540;-41
2021/09/01 15:19:43;;;;;;;3.95;3.22;;;;;;;21.02;56.30;99327.57;1703787;84;21105;-41
2021/09/01 15:22:10;;;;;;;4.58;3.35;;;;;;;20.83;57.12;99325.13;1703521;84;21081;-40
2021/09/01 15:24:38;;;;;;;3.92;3.05;;;;;;;20.63;57.64;99326.23;1704405;84;21805;-40
2021/09/01 15:27:05;;;;;;;6.65;3.15;;;;;;;20.47;58.01;99322.76;1705761;84;21038;-41
2021/09/01 15:29:32;;;;;;;5.65;3.83;;;;;;;20.34;58.73;99325.66;1705279;83;21145;-34
2021/09/01 15:32:03;;;;;;;12.20;5.53;;;;;;;20.24;58.93;99324.47;1703632;84;21046;-36
2021/09/01 15:34:30;;;;;;;9.93;7.45;;;;;;;20.15;59.52;99324.48;1687377;85;21613;-34
2021/09/01 15:37:00;;;;;;;16.02;9.90;;;;;;;20.07;59.86;99326.23;1722265;82;21052;-41
2021/09/01 15:39:28;;;;;;;16.35;9.68;;;;;;;20.03;60.29;99328.66;1726746;82;21116;-34
2021/09/01 15:41:54;;;;;;;16.97;11.40;;;;;;;19.99;60.51;99332.41;1723015;82;21033;-35
2021/09/01 15:44:21;;;;;;;20.65;12.55;;;;;;;19.96;60.74;99337.05;1695890;82;21057;-41
2021/09/01 15:46:54;;;;;;;19.73;12.85;;;;;;;19.92;61.04;99345.16;1701076;82;20982;-41
2021/09/01 15:49:26;;;;;;;33.92;17.90;;;;;;;19.88;61.60;99352.89;1738665;81;21045;-41
2021/09/01 15:51:53;;;;;;;28.95;17.75;;;;;;;19.93;61.76;99352.18;1739355;82;21013;-35
2021/09/01 15:54:20;;;;;;;31.30;19.12;;;;;;;19.98;61.59;99354.59;1716018;82;21038;-32
2021/09/01 15:56:46;;;;;;;83.65;46.02;;;;;;;20.00;61.62;99355.83;1709824;84;21001;-34
2021/09/01 15:59:17;;;;;;;98.70;53.13;;;;;;;19.95;61.31;99357.44;1726674;82;21537;-34
2021/09/01 16:01:45;;;;;;;292.83;187.27;;;;;;;19.84;61.60;99357.14;1737153;82;21477;-39
2021/09/01 16:04:12;;;;;;;172.20;100.90;;;;;;;19.75;62.14;99366.42;1723741;82;21568;-39
2021/09/01 16:06:40;;;;;;;86.05;54.30;;;;;;;19.65;62.57;99362.05;1673143;82;21081;-40
